Kotzebue, AK

12:05 AM AKDT on October 22, 2014 (GMT -0800)
Wien Memorial | Change Station
CLOSE
Current Station
Airport
Location: Kotzebue,
Elevation: 16 ft
Nearby Weather Stations

Elev 16 ft 66.88 °N, 162.60 °W | Updated 12 minutes ago

Clear
Clear
22 °F
Feels Like 16 °F
N
5
Wind Variable Wind from NE

Today
High -- | Low -- °F
--% Chance of Precip.
Yesterday
High -- | Low -- °F
Precip. -- in
10:15 AM 6:52 PM
Waning Crescent, 3% visible
Pressure 29.72 in
Visibility 10.0 miles
Clouds Clear
Windchill 16 °F
Dew Point 16 °F
Humidity 78%
Rainfall 0.00 in
Snow Depth Not available.
UV 0 out of 12
Pollen Not available.
Air Quality Not available.
Flu Activity Sporadic
METAR PAOT 220753Z 04004KT 10SM CLR M06/M09 A2972 RMK AO2 SLP064 T10561089

More Conditions Fewer Conditions

Pressure 29.72 in
Visibility 10.0 miles
Clouds Clear
Windchill 16 °F
Dew Point 16 °F
Humidity 78%
Rainfall 0.00 in
Snow Depth Not available.
UV 0 out of 12
Pollen Not available.
Air Quality Not available.
Flu Activity Sporadic
METAR PAOT 220753Z 04004KT 10SM CLR M06/M09 A2972 RMK AO2 SLP064 T10561089

More Conditions Fewer Conditions

10-Day Weather Forecast

Almanac

Astronomy

Oct. 22, 2014 Rise Set
Actual Time 10:15 AM AKDT 6:52 PM AKDT
Civil Twilight 9:19 AM AKDT 7:48 PM AKDT
Nautical Twilight 8:17 AM AKDT 8:50 PM AKDT
Astronomical Twilight 7:15 AM AKDT 9:52 PM AKDT
Moon 8:42 AM AKDT 6:43 PM AKDT
Length of Visible Light 10h 29m
Length of Day
8h 36m
Tomorrow will be 7m 34s shorter.
Waning Crescent, 3% of the Moon is Illuminated
Today
Waning Crescent
Oct 23
New
Oct 30
First Quarter
Nov 6
Full
Nov 14
Last Quarter

Community

WunderPhotos

Upload Photos

1,763,889 photos uploaded!

Nearby

Snow Depth

Station Depth Elevation
Rocky Point 2 in 500 ft
Gobblers Knob 1 in 2030 ft
Coldfoot 5 in 1040 ft
Atigun Pass 28 in 4800 ft
Imnaviat Creek 34 in 3050 ft

Earthquake Activity

City Distance Mag. Time & Date
No recent earthquake activity has been reported nearby.
Minimum magnitude displayed is 2.5.

Coastal Water Temperatures

Place Temperature
No Stations Reporting

Nearby Weather Stations